sensor_id;sensor_type;location;lat;lon;timestamp;temperature;humidity
17639;DHT22;8938;53.546;9.954;2023-05-10T00:00:10;18.10;80.80
17639;DHT22;8938;53.546;9.954;2023-05-10T00:02:36;18.10;80.60
17639;DHT22;8938;53.546;9.954;2023-05-10T00:05:02;18.10;80.90
17639;DHT22;8938;53.546;9.954;2023-05-10T00:07:27;18.10;81.00
17639;DHT22;8938;53.546;9.954;2023-05-10T00:09:53;18.10;81.50
17639;DHT22;8938;53.546;9.954;2023-05-10T00:12:18;18.00;81.80
17639;DHT22;8938;53.546;9.954;2023-05-10T00:14:47;18.00;81.80
17639;DHT22;8938;53.546;9.954;2023-05-10T00:17:13;17.90;82.40
17639;DHT22;8938;53.546;9.954;2023-05-10T00:19:38;17.90;82.20
17639;DHT22;8938;53.546;9.954;2023-05-10T00:22:04;17.80;82.40
17639;DHT22;8938;53.546;9.954;2023-05-10T00:24:29;17.80;82.80
17639;DHT22;8938;53.546;9.954;2023-05-10T00:26:55;17.70;82.80
17639;DHT22;8938;53.546;9.954;2023-05-10T00:29:20;17.70;82.80
17639;DHT22;8938;53.546;9.954;2023-05-10T00:31:46;17.70;82.90
17639;DHT22;8938;53.546;9.954;2023-05-10T00:34:11;17.70;82.40
17639;DHT22;8938;53.546;9.954;2023-05-10T00:36:37;17.80;82.00
17639;DHT22;8938;53.546;9.954;2023-05-10T00:39:03;17.90;81.90
17639;DHT22;8938;53.546;9.954;2023-05-10T00:41:29;17.90;81.70
17639;DHT22;8938;53.546;9.954;2023-05-10T00:43:57;17.80;81.60
17639;DHT22;8938;53.546;9.954;2023-05-10T00:46:22;17.90;81.60
17639;DHT22;8938;53.546;9.954;2023-05-10T00:48:48;17.80;81.80
17639;DHT22;8938;53.546;9.954;2023-05-10T00:51:14;17.80;81.80
17639;DHT22;8938;53.546;9.954;2023-05-10T00:53:40;17.80;82.30
17639;DHT22;8938;53.546;9.954;2023-05-10T00:56:06;17.80;82.70
17639;DHT22;8938;53.546;9.954;2023-05-10T00:58:31;17.70;82.60
17639;DHT22;8938;53.546;9.954;2023-05-10T01:00:58;17.60;82.90
17639;DHT22;8938;53.546;9.954;2023-05-10T01:03:24;17.60;82.80
17639;DHT22;8938;53.546;9.954;2023-05-10T01:05:49;17.60;83.40
17639;DHT22;8938;53.546;9.954;2023-05-10T01:08:15;17.50;84.00
17639;DHT22;8938;53.546;9.954;2023-05-10T01:10:43;17.50;83.70
17639;DHT22;8938;53.546;9.954;2023-05-10T01:13:09;17.60;83.90
17639;DHT22;8938;53.546;9.954;2023-05-10T01:15:35;17.60;84.10
17639;DHT22;8938;53.546;9.954;2023-05-10T01:18:02;17.60;84.40
17639;DHT22;8938;53.546;9.954;2023-05-10T01:20:35;17.60;84.20
17639;DHT22;8938;53.546;9.954;2023-05-10T01:23:35;17.60;84.30
17639;DHT22;8938;53.546;9.954;2023-05-10T01:26:26;17.50;84.40
17639;DHT22;8938;53.546;9.954;2023-05-10T01:34:23;17.60;84.50
17639;DHT22;8938;53.546;9.954;2023-05-10T01:37:06;17.60;84.20
17639;DHT22;8938;53.546;9.954;2023-05-10T01:39:44;17.60;84.40
17639;DHT22;8938;53.546;9.954;2023-05-10T01:42:16;17.50;85.70
17639;DHT22;8938;53.546;9.954;2023-05-10T01:44:52;17.40;86.00
17639;DHT22;8938;53.546;9.954;2023-05-10T01:47:35;17.20;85.40
17639;DHT22;8938;53.546;9.954;2023-05-10T01:50:04;17.20;86.40
17639;DHT22;8938;53.546;9.954;2023-05-10T01:52:42;17.20;85.70
17639;DHT22;8938;53.546;9.954;2023-05-10T01:55:14;17.10;85.60
17639;DHT22;8938;53.546;9.954;2023-05-10T01:57:44;17.20;85.30
17639;DHT22;8938;53.546;9.954;2023-05-10T02:00:12;17.20;85.10
17639;DHT22;8938;53.546;9.954;2023-05-10T02:02:40;17.20;84.90
17639;DHT22;8938;53.546;9.954;2023-05-10T02:05:08;17.20;84.80
17639;DHT22;8938;53.546;9.954;2023-05-10T02:07:35;17.20;84.80
17639;DHT22;8938;53.546;9.954;2023-05-10T02:10:06;17.30;84.70
17639;DHT22;8938;53.546;9.954;2023-05-10T02:12:36;17.30;84.60
17639;DHT22;8938;53.546;9.954;2023-05-10T02:15:04;17.20;84.60
17639;DHT22;8938;53.546;9.954;2023-05-10T02:17:32;17.20;84.60
17639;DHT22;8938;53.546;9.954;2023-05-10T02:19:59;17.30;84.80
17639;DHT22;8938;53.546;9.954;2023-05-10T02:22:27;17.20;85.10
17639;DHT22;8938;53.546;9.954;2023-05-10T02:24:55;17.10;85.10
17639;DHT22;8938;53.546;9.954;2023-05-10T02:27:24;17.10;85.20
17639;DHT22;8938;53.546;9.954;2023-05-10T02:29:50;17.00;85.40
17639;DHT22;8938;53.546;9.954;2023-05-10T02:32:17;17.00;85.30
17639;DHT22;8938;53.546;9.954;2023-05-10T02:34:44;17.10;85.40
17639;DHT22;8938;53.546;9.954;2023-05-10T02:37:13;17.00;85.60
17639;DHT22;8938;53.546;9.954;2023-05-10T02:39:40;16.90;86.00
17639;DHT22;8938;53.546;9.954;2023-05-10T02:42:12;16.90;86.30
17639;DHT22;8938;53.546;9.954;2023-05-10T02:44:41;16.90;86.00
17639;DHT22;8938;53.546;9.954;2023-05-10T02:47:07;16.90;86.70
17639;DHT22;8938;53.546;9.954;2023-05-10T02:49:33;16.70;86.80
17639;DHT22;8938;53.546;9.954;2023-05-10T02:52:01;16.70;86.90
17639;DHT22;8938;53.546;9.954;2023-05-10T02:54:52;16.70;87.00
17639;DHT22;8938;53.546;9.954;2023-05-10T02:57:26;16.70;87.10
17639;DHT22;8938;53.546;9.954;2023-05-10T02:59:52;16.60;87.20
17639;DHT22;8938;53.546;9.954;2023-05-10T03:02:17;16.70;87.70
17639;DHT22;8938;53.546;9.954;2023-05-10T03:04:43;16.70;87.80
17639;DHT22;8938;53.546;9.954;2023-05-10T03:07:09;16.60;87.60
17639;DHT22;8938;53.546;9.954;2023-05-10T03:09:35;16.60;87.60
17639;DHT22;8938;53.546;9.954;2023-05-10T03:15:00;16.60;88.30
17639;DHT22;8938;53.546;9.954;2023-05-10T03:20:10;16.80;88.00
17639;DHT22;8938;53.546;9.954;2023-05-10T03:22:48;16.80;87.60
17639;DHT22;8938;53.546;9.954;2023-05-10T03:25:16;16.80;87.50
17639;DHT22;8938;53.546;9.954;2023-05-10T03:27:44;16.80;88.10
17639;DHT22;8938;53.546;9.954;2023-05-10T03:30:12;16.70;88.30
17639;DHT22;8938;53.546;9.954;2023-05-10T03:32:38;16.70;88.30
17639;DHT22;8938;53.546;9.954;2023-05-10T03:35:10;16.60;89.10
17639;DHT22;8938;53.546;9.954;2023-05-10T03:37:37;16.60;88.90
17639;DHT22;8938;53.546;9.954;2023-05-10T03:40:03;16.60;89.00
17639;DHT22;8938;53.546;9.954;2023-05-10T03:42:29;16.70;88.60
17639;DHT22;8938;53.546;9.954;2023-05-10T03:44:54;16.70;88.30
17639;DHT22;8938;53.546;9.954;2023-05-10T03:47:20;16.60;89.30
17639;DHT22;8938;53.546;9.954;2023-05-10T03:49:45;16.60;88.70
17639;DHT22;8938;53.546;9.954;2023-05-10T03:52:11;16.60;88.80
17639;DHT22;8938;53.546;9.954;2023-05-10T03:54:37;16.60;89.00
17639;DHT22;8938;53.546;9.954;2023-05-10T03:57:03;16.60;89.10
17639;DHT22;8938;53.546;9.954;2023-05-10T03:59:29;16.60;89.60
17639;DHT22;8938;53.546;9.954;2023-05-10T04:01:55;16.60;89.50
17639;DHT22;8938;53.546;9.954;2023-05-10T04:04:20;16.60;89.90
17639;DHT22;8938;53.546;9.954;2023-05-10T04:06:47;16.60;89.90
17639;DHT22;8938;53.546;9.954;2023-05-10T04:09:12;16.50;89.40
17639;DHT22;8938;53.546;9.954;2023-05-10T04:11:38;16.50;89.20
17639;DHT22;8938;53.546;9.954;2023-05-10T04:14:04;16.50;89.40
17639;DHT22;8938;53.546;9.954;2023-05-10T04:16:30;16.50;89.10
17639;DHT22;8938;53.546;9.954;2023-05-10T04:18:55;16.50;89.20
17639;DHT22;8938;53.546;9.954;2023-05-10T04:21:21;16.50;89.80
17639;DHT22;8938;53.546;9.954;2023-05-10T04:23:46;16.50;89.60
17639;DHT22;8938;53.546;9.954;2023-05-10T04:26:12;16.60;89.10
17639;DHT22;8938;53.546;9.954;2023-05-10T04:28:38;16.70;89.10
17639;DHT22;8938;53.546;9.954;2023-05-10T04:31:07;16.50;89.10
17639;DHT22;8938;53.546;9.954;2023-05-10T04:33:33;16.70;89.40
17639;DHT22;8938;53.546;9.954;2023-05-10T04:35:59;16.60;89.30
17639;DHT22;8938;53.546;9.954;2023-05-10T04:38:25;16.70;89.50
17639;DHT22;8938;53.546;9.954;2023-05-10T04:40:51;16.70;90.00
17639;DHT22;8938;53.546;9.954;2023-05-10T04:43:16;16.60;89.60
17639;DHT22;8938;53.546;9.954;2023-05-10T04:45:42;16.60;89.90
17639;DHT22;8938;53.546;9.954;2023-05-10T04:48:07;16.60;89.70
17639;DHT22;8938;53.546;9.954;2023-05-10T04:50:33;16.70;89.70
17639;DHT22;8938;53.546;9.954;2023-05-10T04:52:58;16.60;89.50
17639;DHT22;8938;53.546;9.954;2023-05-10T04:55:26;16.70;89.90
17639;DHT22;8938;53.546;9.954;2023-05-10T04:57:52;16.60;89.60
17639;DHT22;8938;53.546;9.954;2023-05-10T05:00:18;16.60;89.50
17639;DHT22;8938;53.546;9.954;2023-05-10T05:02:45;16.50;89.80
17639;DHT22;8938;53.546;9.954;2023-05-10T05:05:11;16.50;89.80
17639;DHT22;8938;53.546;9.954;2023-05-10T05:07:37;16.50;90.00
17639;DHT22;8938;53.546;9.954;2023-05-10T05:10:07;16.50;89.80
17639;DHT22;8938;53.546;9.954;2023-05-10T05:12:33;16.60;89.40
17639;DHT22;8938;53.546;9.954;2023-05-10T05:14:59;16.70;89.40
17639;DHT22;8938;53.546;9.954;2023-05-10T05:17:25;16.70;89.00
17639;DHT22;8938;53.546;9.954;2023-05-10T05:19:50;16.80;88.30
17639;DHT22;8938;53.546;9.954;2023-05-10T05:22:16;16.90;88.00
17639;DHT22;8938;53.546;9.954;2023-05-10T05:24:41;16.80;87.80
17639;DHT22;8938;53.546;9.954;2023-05-10T05:27:07;16.80;88.10
17639;DHT22;8938;53.546;9.954;2023-05-10T05:29:33;16.60;88.00
17639;DHT22;8938;53.546;9.954;2023-05-10T05:31:59;16.60;88.10
17639;DHT22;8938;53.546;9.954;2023-05-10T05:34:24;16.70;88.40
17639;DHT22;8938;53.546;9.954;2023-05-10T05:36:50;16.80;88.10
17639;DHT22;8938;53.546;9.954;2023-05-10T05:39:16;16.70;88.10
17639;DHT22;8938;53.546;9.954;2023-05-10T05:41:41;16.80;88.20
17639;DHT22;8938;53.546;9.954;2023-05-10T05:44:07;16.70;88.20
17639;DHT22;8938;53.546;9.954;2023-05-10T05:46:33;16.70;88.40
17639;DHT22;8938;53.546;9.954;2023-05-10T05:48:58;16.80;88.50
17639;DHT22;8938;53.546;9.954;2023-05-10T05:51:24;16.80;88.60
17639;DHT22;8938;53.546;9.954;2023-05-10T05:53:49;16.90;88.30
17639;DHT22;8938;53.546;9.954;2023-05-10T05:56:15;16.90;88.80
17639;DHT22;8938;53.546;9.954;2023-05-10T05:58:41;17.00;89.30
17639;DHT22;8938;53.546;9.954;2023-05-10T06:01:06;17.00;88.40
17639;DHT22;8938;53.546;9.954;2023-05-10T06:03:32;17.10;88.50
17639;DHT22;8938;53.546;9.954;2023-05-10T06:05:58;17.20;88.10
17639;DHT22;8938;53.546;9.954;2023-05-10T06:08:23;17.20;87.90
17639;DHT22;8938;53.546;9.954;2023-05-10T06:10:49;17.40;88.10
17639;DHT22;8938;53.546;9.954;2023-05-10T06:13:14;17.60;88.40
17639;DHT22;8938;53.546;9.954;2023-05-10T06:15:40;17.70;87.80
17639;DHT22;8938;53.546;9.954;2023-05-10T06:18:06;17.80;87.40
17639;DHT22;8938;53.546;9.954;2023-05-10T06:20:31;17.90;86.90
17639;DHT22;8938;53.546;9.954;2023-05-10T06:22:57;18.10;86.60
17639;DHT22;8938;53.546;9.954;2023-05-10T06:25:23;18.20;86.60
17639;DHT22;8938;53.546;9.954;2023-05-10T06:27:49;18.30;86.40
17639;DHT22;8938;53.546;9.954;2023-05-10T06:30:14;18.30;86.30
17639;DHT22;8938;53.546;9.954;2023-05-10T06:32:43;18.40;86.00
17639;DHT22;8938;53.546;9.954;2023-05-10T06:35:10;18.30;86.00
17639;DHT22;8938;53.546;9.954;2023-05-10T06:37:35;18.20;86.30
17639;DHT22;8938;53.546;9.954;2023-05-10T06:40:01;18.10;86.80
17639;DHT22;8938;53.546;9.954;2023-05-10T06:42:27;18.20;86.90
17639;DHT22;8938;53.546;9.954;2023-05-10T06:44:53;18.20;86.80
17639;DHT22;8938;53.546;9.954;2023-05-10T06:47:18;18.30;86.80
17639;DHT22;8938;53.546;9.954;2023-05-10T06:49:44;18.30;87.00
17639;DHT22;8938;53.546;9.954;2023-05-10T06:52:09;18.40;86.80
17639;DHT22;8938;53.546;9.954;2023-05-10T06:54:35;18.40;87.40
17639;DHT22;8938;53.546;9.954;2023-05-10T06:57:00;18.50;86.70
17639;DHT22;8938;53.546;9.954;2023-05-10T06:59:28;18.70;86.60
17639;DHT22;8938;53.546;9.954;2023-05-10T07:01:54;18.90;86.60
17639;DHT22;8938;53.546;9.954;2023-05-10T07:04:20;18.90;86.60
17639;DHT22;8938;53.546;9.954;2023-05-10T07:06:46;19.10;86.50
17639;DHT22;8938;53.546;9.954;2023-05-10T07:09:12;19.20;86.40
17639;DHT22;8938;53.546;9.954;2023-05-10T07:11:38;19.40;86.30
17639;DHT22;8938;53.546;9.954;2023-05-10T07:14:06;19.50;86.00
17639;DHT22;8938;53.546;9.954;2023-05-10T07:16:31;19.50;85.20
17639;DHT22;8938;53.546;9.954;2023-05-10T07:18:57;19.40;85.10
17639;DHT22;8938;53.546;9.954;2023-05-10T07:21:22;19.40;85.50
17639;DHT22;8938;53.546;9.954;2023-05-10T07:23:49;19.60;85.60
17639;DHT22;8938;53.546;9.954;2023-05-10T07:26:15;19.70;85.40
17639;DHT22;8938;53.546;9.954;2023-05-10T07:28:41;19.60;84.90
17639;DHT22;8938;53.546;9.954;2023-05-10T07:31:07;19.40;85.40
17639;DHT22;8938;53.546;9.954;2023-05-10T07:33:33;19.50;85.90
17639;DHT22;8938;53.546;9.954;2023-05-10T07:35:59;19.60;85.30
17639;DHT22;8938;53.546;9.954;2023-05-10T07:38:25;19.70;85.00
17639;DHT22;8938;53.546;9.954;2023-05-10T07:40:51;19.70;84.30
17639;DHT22;8938;53.546;9.954;2023-05-10T07:43:16;19.70;83.90
17639;DHT22;8938;53.546;9.954;2023-05-10T07:45:42;19.60;84.30
17639;DHT22;8938;53.546;9.954;2023-05-10T07:48:07;19.80;84.50
17639;DHT22;8938;53.546;9.954;2023-05-10T07:50:33;19.80;84.20
17639;DHT22;8938;53.546;9.954;2023-05-10T07:52:59;19.70;84.30
17639;DHT22;8938;53.546;9.954;2023-05-10T07:55:24;19.90;84.90
17639;DHT22;8938;53.546;9.954;2023-05-10T07:57:50;19.90;84.50
17639;DHT22;8938;53.546;9.954;2023-05-10T08:00:20;20.10;84.20
17639;DHT22;8938;53.546;9.954;2023-05-10T08:02:48;20.10;84.50
17639;DHT22;8938;53.546;9.954;2023-05-10T08:05:14;20.00;83.70
17639;DHT22;8938;53.546;9.954;2023-05-10T08:07:40;20.00;84.00
17639;DHT22;8938;53.546;9.954;2023-05-10T08:10:06;20.10;84.40
17639;DHT22;8938;53.546;9.954;2023-05-10T08:12:36;20.20;84.10
17639;DHT22;8938;53.546;9.954;2023-05-10T08:15:02;20.20;83.80
17639;DHT22;8938;53.546;9.954;2023-05-10T08:17:27;20.30;84.00
17639;DHT22;8938;53.546;9.954;2023-05-10T08:19:53;20.30;83.90
17639;DHT22;8938;53.546;9.954;2023-05-10T08:22:18;20.50;83.90
17639;DHT22;8938;53.546;9.954;2023-05-10T08:24:44;20.60;83.90
17639;DHT22;8938;53.546;9.954;2023-05-10T08:27:12;20.70;83.50
17639;DHT22;8938;53.546;9.954;2023-05-10T08:29:38;20.60;83.50
17639;DHT22;8938;53.546;9.954;2023-05-10T08:32:04;20.70;83.80
17639;DHT22;8938;53.546;9.954;2023-05-10T08:34:30;20.80;84.00
17639;DHT22;8938;53.546;9.954;2023-05-10T08:36:56;21.00;84.40
17639;DHT22;8938;53.546;9.954;2023-05-10T08:39:22;21.10;83.50
17639;DHT22;8938;53.546;9.954;2023-05-10T08:41:50;21.20;83.10
17639;DHT22;8938;53.546;9.954;2023-05-10T08:44:16;21.20;82.60
17639;DHT22;8938;53.546;9.954;2023-05-10T08:46:46;21.30;82.80
17639;DHT22;8938;53.546;9.954;2023-05-10T08:49:18;21.30;82.80
17639;DHT22;8938;53.546;9.954;2023-05-10T08:51:50;21.40;82.90
17639;DHT22;8938;53.546;9.954;2023-05-10T08:54:17;21.40;82.70
17639;DHT22;8938;53.546;9.954;2023-05-10T08:56:42;21.60;82.40
17639;DHT22;8938;53.546;9.954;2023-05-10T08:59:08;21.50;82.10
17639;DHT22;8938;53.546;9.954;2023-05-10T09:01:35;21.30;82.30
17639;DHT22;8938;53.546;9.954;2023-05-10T09:04:01;21.20;82.70
17639;DHT22;8938;53.546;9.954;2023-05-10T09:06:28;21.30;83.10
17639;DHT22;8938;53.546;9.954;2023-05-10T09:08:54;21.10;83.20
17639;DHT22;8938;53.546;9.954;2023-05-10T09:11:21;21.10;83.60
17639;DHT22;8938;53.546;9.954;2023-05-10T09:13:48;21.20;84.00
17639;DHT22;8938;53.546;9.954;2023-05-10T09:16:14;21.00;84.10
17639;DHT22;8938;53.546;9.954;2023-05-10T09:18:40;21.00;84.80
17639;DHT22;8938;53.546;9.954;2023-05-10T09:21:05;20.90;85.00
17639;DHT22;8938;53.546;9.954;2023-05-10T09:23:31;20.90;85.30
17639;DHT22;8938;53.546;9.954;2023-05-10T09:26:07;20.60;86.10
17639;DHT22;8938;53.546;9.954;2023-05-10T09:28:54;20.50;86.20
17639;DHT22;8938;53.546;9.954;2023-05-10T09:31:20;20.40;87.00
17639;DHT22;8938;53.546;9.954;2023-05-10T09:33:49;20.50;87.30
17639;DHT22;8938;53.546;9.954;2023-05-10T09:36:15;20.40;87.70
17639;DHT22;8938;53.546;9.954;2023-05-10T09:41:23;20.40;89.40
17639;DHT22;8938;53.546;9.954;2023-05-10T09:43:50;20.20;90.20
17639;DHT22;8938;53.546;9.954;2023-05-10T09:46:16;20.10;90.10
17639;DHT22;8938;53.546;9.954;2023-05-10T09:48:44;20.10;90.40
17639;DHT22;8938;53.546;9.954;2023-05-10T09:51:10;19.90;90.70
17639;DHT22;8938;53.546;9.954;2023-05-10T09:53:36;19.80;90.80
17639;DHT22;8938;53.546;9.954;2023-05-10T09:56:01;19.80;91.20
17639;DHT22;8938;53.546;9.954;2023-05-10T09:58:27;19.90;91.40
17639;DHT22;8938;53.546;9.954;2023-05-10T10:00:53;19.80;91.10
17639;DHT22;8938;53.546;9.954;2023-05-10T10:03:21;19.70;91.30
17639;DHT22;8938;53.546;9.954;2023-05-10T10:05:47;19.50;91.70
17639;DHT22;8938;53.546;9.954;2023-05-10T10:08:14;19.30;91.70
17639;DHT22;8938;53.546;9.954;2023-05-10T10:10:41;19.20;92.10
17639;DHT22;8938;53.546;9.954;2023-05-10T10:13:07;19.00;92.20
17639;DHT22;8938;53.546;9.954;2023-05-10T10:15:34;19.00;92.50
17639;DHT22;8938;53.546;9.954;2023-05-10T10:18:00;18.90;92.70
17639;DHT22;8938;53.546;9.954;2023-05-10T10:20:26;18.90;92.90
17639;DHT22;8938;53.546;9.954;2023-05-10T10:22:52;18.80;93.00
17639;DHT22;8938;53.546;9.954;2023-05-10T10:25:20;18.90;93.20
17639;DHT22;8938;53.546;9.954;2023-05-10T10:30:45;18.80;93.50
17639;DHT22;8938;53.546;9.954;2023-05-10T10:33:34;18.70;93.90
17639;DHT22;8938;53.546;9.954;2023-05-10T10:36:02;18.60;94.30
17639;DHT22;8938;53.546;9.954;2023-05-10T10:41:29;18.80;94.70
17639;DHT22;8938;53.546;9.954;2023-05-10T10:47:07;18.90;95.00
17639;DHT22;8938;53.546;9.954;2023-05-10T11:07:58;18.60;96.40
17639;DHT22;8938;53.546;9.954;2023-05-10T11:10:25;18.60;96.40
17639;DHT22;8938;53.546;9.954;2023-05-10T11:13:01;18.70;96.40
17639;DHT22;8938;53.546;9.954;2023-05-10T11:15:38;18.80;96.50
17639;DHT22;8938;53.546;9.954;2023-05-10T11:18:23;18.90;96.50
17639;DHT22;8938;53.546;9.954;2023-05-10T11:21:00;19.10;96.50
17639;DHT22;8938;53.546;9.954;2023-05-10T11:26:13;19.00;96.40
17639;DHT22;8938;53.546;9.954;2023-05-10T11:28:44;19.00;96.40
17639;DHT22;8938;53.546;9.954;2023-05-10T11:31:10;19.00;96.60
17639;DHT22;8938;53.546;9.954;2023-05-10T11:33:46;19.00;96.60
17639;DHT22;8938;53.546;9.954;2023-05-10T11:36:34;18.90;96.60
17639;DHT22;8938;53.546;9.954;2023-05-10T11:39:01;19.00;96.80
17639;DHT22;8938;53.546;9.954;2023-05-10T11:41:29;18.90;96.90
17639;DHT22;8938;53.546;9.954;2023-05-10T11:43:55;18.90;97.10
17639;DHT22;8938;53.546;9.954;2023-05-10T11:46:23;18.80;97.20
17639;DHT22;8938;53.546;9.954;2023-05-10T11:48:55;18.80;97.30
17639;DHT22;8938;53.546;9.954;2023-05-10T11:51:25;18.90;97.50
17639;DHT22;8938;53.546;9.954;2023-05-10T11:53:55;18.80;97.60
17639;DHT22;8938;53.546;9.954;2023-05-10T11:56:21;18.60;97.90
17639;DHT22;8938;53.546;9.954;2023-05-10T11:58:57;18.60;98.10
17639;DHT22;8938;53.546;9.954;2023-05-10T12:01:25;18.60;98.40
17639;DHT22;8938;53.546;9.954;2023-05-10T12:03:55;18.70;98.50
17639;DHT22;8938;53.546;9.954;2023-05-10T12:06:28;18.80;98.70
17639;DHT22;8938;53.546;9.954;2023-05-10T12:08:54;18.80;98.70
17639;DHT22;8938;53.546;9.954;2023-05-10T12:11:20;18.80;99.00
17639;DHT22;8938;53.546;9.954;2023-05-10T12:13:49;18.80;99.20
17639;DHT22;8938;53.546;9.954;2023-05-10T12:16:17;18.80;99.20
17639;DHT22;8938;53.546;9.954;2023-05-10T12:18:43;18.90;99.40
17639;DHT22;8938;53.546;9.954;2023-05-10T12:21:12;19.00;99.50
17639;DHT22;8938;53.546;9.954;2023-05-10T12:23:38;19.10;99.60
17639;DHT22;8938;53.546;9.954;2023-05-10T12:26:05;19.30;99.60
17639;DHT22;8938;53.546;9.954;2023-05-10T12:28:31;19.40;99.60
17639;DHT22;8938;53.546;9.954;2023-05-10T12:30:58;19.50;99.50
17639;DHT22;8938;53.546;9.954;2023-05-10T12:33:24;19.50;99.50
17639;DHT22;8938;53.546;9.954;2023-05-10T12:35:51;19.50;99.40
17639;DHT22;8938;53.546;9.954;2023-05-10T12:38:34;19.40;99.50
17639;DHT22;8938;53.546;9.954;2023-05-10T12:41:02;19.40;99.80
17639;DHT22;8938;53.546;9.954;2023-05-10T12:43:28;19.40;99.90
17639;DHT22;8938;53.546;9.954;2023-05-10T12:45:54;19.60;99.90
17639;DHT22;8938;53.546;9.954;2023-05-10T12:48:20;19.70;99.90
17639;DHT22;8938;53.546;9.954;2023-05-10T12:50:46;19.90;99.90
17639;DHT22;8938;53.546;9.954;2023-05-10T12:53:14;20.00;99.90
17639;DHT22;8938;53.546;9.954;2023-05-10T12:55:43;20.00;99.90
17639;DHT22;8938;53.546;9.954;2023-05-10T12:58:11;19.70;99.90
17639;DHT22;8938;53.546;9.954;2023-05-10T13:00:38;19.60;99.90
17639;DHT22;8938;53.546;9.954;2023-05-10T13:03:04;19.60;99.90
17639;DHT22;8938;53.546;9.954;2023-05-10T13:05:33;19.70;99.90
17639;DHT22;8938;53.546;9.954;2023-05-10T13:08:00;19.90;99.90
17639;DHT22;8938;53.546;9.954;2023-05-10T13:10:26;20.00;99.90
17639;DHT22;8938;53.546;9.954;2023-05-10T13:12:51;20.10;99.90
17639;DHT22;8938;53.546;9.954;2023-05-10T13:15:17;20.30;99.90
17639;DHT22;8938;53.546;9.954;2023-05-10T13:17:43;20.40;99.90
17639;DHT22;8938;53.546;9.954;2023-05-10T13:20:09;20.60;99.90
17639;DHT22;8938;53.546;9.954;2023-05-10T13:22:35;20.60;99.90
17639;DHT22;8938;53.546;9.954;2023-05-10T13:25:01;20.60;99.90
17639;DHT22;8938;53.546;9.954;2023-05-10T13:27:26;20.60;99.90
17639;DHT22;8938;53.546;9.954;2023-05-10T13:29:52;20.50;99.90
17639;DHT22;8938;53.546;9.954;2023-05-10T13:32:18;20.70;99.90
17639;DHT22;8938;53.546;9.954;2023-05-10T13:34:44;20.90;99.90
17639;DHT22;8938;53.546;9.954;2023-05-10T13:37:09;20.90;99.90
17639;DHT22;8938;53.546;9.954;2023-05-10T13:39:35;21.00;99.90
17639;DHT22;8938;53.546;9.954;2023-05-10T13:42:03;21.00;99.90
17639;DHT22;8938;53.546;9.954;2023-05-10T13:44:29;21.00;99.90
17639;DHT22;8938;53.546;9.954;2023-05-10T13:46:55;21.00;99.90
17639;DHT22;8938;53.546;9.954;2023-05-10T13:49:21;21.00;99.90
17639;DHT22;8938;53.546;9.954;2023-05-10T13:51:47;21.00;99.90
17639;DHT22;8938;53.546;9.954;2023-05-10T13:54:13;20.90;99.90
17639;DHT22;8938;53.546;9.954;2023-05-10T13:56:39;20.80;99.90
17639;DHT22;8938;53.546;9.954;2023-05-10T13:59:04;20.90;99.90
17639;DHT22;8938;53.546;9.954;2023-05-10T14:01:30;21.00;99.90
17639;DHT22;8938;53.546;9.954;2023-05-10T14:03:56;21.10;99.90
17639;DHT22;8938;53.546;9.954;2023-05-10T14:06:22;21.20;99.90
17639;DHT22;8938;53.546;9.954;2023-05-10T14:08:47;21.20;99.90
17639;DHT22;8938;53.546;9.954;2023-05-10T14:11:14;21.10;99.90
17639;DHT22;8938;53.546;9.954;2023-05-10T14:13:40;21.10;99.90
17639;DHT22;8938;53.546;9.954;2023-05-10T14:16:06;21.00;99.90
17639;DHT22;8938;53.546;9.954;2023-05-10T14:18:31;21.00;99.90
17639;DHT22;8938;53.546;9.954;2023-05-10T14:20:57;21.00;99.90
17639;DHT22;8938;53.546;9.954;2023-05-10T14:23:22;20.90;99.90
17639;DHT22;8938;53.546;9.954;2023-05-10T14:25:54;20.90;99.90
17639;DHT22;8938;53.546;9.954;2023-05-10T14:28:20;20.80;99.90
17639;DHT22;8938;53.546;9.954;2023-05-10T14:30:46;20.90;99.90
17639;DHT22;8938;53.546;9.954;2023-05-10T14:33:12;20.90;99.90
17639;DHT22;8938;53.546;9.954;2023-05-10T14:35:38;21.10;99.90
17639;DHT22;8938;53.546;9.954;2023-05-10T14:38:04;21.10;99.90
17639;DHT22;8938;53.546;9.954;2023-05-10T14:40:30;21.20;99.90
17639;DHT22;8938;53.546;9.954;2023-05-10T14:42:55;21.10;99.90
17639;DHT22;8938;53.546;9.954;2023-05-10T14:45:22;21.10;99.90
17639;DHT22;8938;53.546;9.954;2023-05-10T14:47:48;21.10;99.90
17639;DHT22;8938;53.546;9.954;2023-05-10T14:50:14;21.00;99.90
17639;DHT22;8938;53.546;9.954;2023-05-10T14:52:40;21.00;99.90
17639;DHT22;8938;53.546;9.954;2023-05-10T14:55:06;20.90;99.90
17639;DHT22;8938;53.546;9.954;2023-05-10T14:57:32;20.90;99.90
17639;DHT22;8938;53.546;9.954;2023-05-10T14:59:57;20.70;99.90
17639;DHT22;8938;53.546;9.954;2023-05-10T15:02:23;20.70;99.90
17639;DHT22;8938;53.546;9.954;2023-05-10T15:04:48;20.60;99.90
17639;DHT22;8938;53.546;9.954;2023-05-10T15:07:14;20.70;99.90
17639;DHT22;8938;53.546;9.954;2023-05-10T15:09:41;20.70;99.90
17639;DHT22;8938;53.546;9.954;2023-05-10T15:12:07;20.80;99.90
17639;DHT22;8938;53.546;9.954;2023-05-10T15:14:32;20.80;99.90
17639;DHT22;8938;53.546;9.954;2023-05-10T15:16:58;20.70;99.90
17639;DHT22;8938;53.546;9.954;2023-05-10T15:19:24;20.70;99.90
17639;DHT22;8938;53.546;9.954;2023-05-10T15:21:49;20.80;99.90
17639;DHT22;8938;53.546;9.954;2023-05-10T15:24:16;20.80;99.90
17639;DHT22;8938;53.546;9.954;2023-05-10T15:26:42;20.70;99.90
17639;DHT22;8938;53.546;9.954;2023-05-10T15:29:07;20.70;99.90
17639;DHT22;8938;53.546;9.954;2023-05-10T15:31:33;20.90;99.90
17639;DHT22;8938;53.546;9.954;2023-05-10T15:34:01;20.70;99.90
17639;DHT22;8938;53.546;9.954;2023-05-10T15:36:27;20.50;99.90
17639;DHT22;8938;53.546;9.954;2023-05-10T15:38:53;20.30;99.90
17639;DHT22;8938;53.546;9.954;2023-05-10T15:41:19;20.30;99.90
17639;DHT22;8938;53.546;9.954;2023-05-10T15:43:46;20.20;99.90
17639;DHT22;8938;53.546;9.954;2023-05-10T15:46:11;20.10;99.90
17639;DHT22;8938;53.546;9.954;2023-05-10T15:48:37;20.20;99.90
17639;DHT22;8938;53.546;9.954;2023-05-10T15:51:04;20.30;99.90
17639;DHT22;8938;53.546;9.954;2023-05-10T15:53:30;20.40;99.90
17639;DHT22;8938;53.546;9.954;2023-05-10T15:55:55;20.50;99.90
17639;DHT22;8938;53.546;9.954;2023-05-10T15:58:21;20.40;99.90
17639;DHT22;8938;53.546;9.954;2023-05-10T16:00:46;20.30;99.90
17639;DHT22;8938;53.546;9.954;2023-05-10T16:03:12;20.00;99.90
17639;DHT22;8938;53.546;9.954;2023-05-10T16:05:38;19.80;99.90
17639;DHT22;8938;53.546;9.954;2023-05-10T16:08:03;19.60;99.90
17639;DHT22;8938;53.546;9.954;2023-05-10T16:10:31;19.50;99.90
17639;DHT22;8938;53.546;9.954;2023-05-10T16:12:57;19.50;99.90
17639;DHT22;8938;53.546;9.954;2023-05-10T16:15:24;19.50;99.90
17639;DHT22;8938;53.546;9.954;2023-05-10T16:17:50;19.60;99.90
17639;DHT22;8938;53.546;9.954;2023-05-10T16:20:15;19.70;99.90
17639;DHT22;8938;53.546;9.954;2023-05-10T16:22:41;19.80;99.90
17639;DHT22;8938;53.546;9.954;2023-05-10T16:25:15;19.90;99.90
17639;DHT22;8938;53.546;9.954;2023-05-10T16:27:41;19.80;99.90